createdAt,value
2017-08-23T00:02:00.273Z,22.60
2017-08-23T00:04:27.683Z,22.50
2017-08-23T00:06:55.184Z,22.20
2017-08-23T00:09:22.647Z,22.20
2017-08-23T00:11:50.071Z,22.30
2017-08-23T00:14:17.505Z,22.20
2017-08-23T00:16:44.923Z,22.20
2017-08-23T00:19:12.341Z,22.20
2017-08-23T00:21:39.831Z,22.30
2017-08-23T00:24:07.253Z,22.20
2017-08-23T00:26:34.835Z,22.20
2017-08-23T00:29:02.274Z,22.20
2017-08-23T00:31:29.747Z,22.20
2017-08-23T00:33:57.183Z,22.20
2017-08-23T00:36:24.624Z,21.80
2017-08-23T00:38:52.047Z,21.50
2017-08-23T00:41:19.467Z,21.80
2017-08-23T00:43:47.051Z,21.90
2017-08-23T00:46:14.484Z,22.30
2017-08-23T00:48:41.911Z,22.20
2017-08-23T00:51:09.327Z,22.20
2017-08-23T00:53:36.749Z,22.20
2017-08-23T00:56:04.215Z,22.40
2017-08-23T00:58:31.669Z,22.20
2017-08-23T01:00:59.105Z,22.20
2017-08-23T01:03:26.587Z,22.20
2017-08-23T01:05:54.027Z,22.20
2017-08-23T01:08:21.590Z,22.30
2017-08-23T01:10:49.018Z,22.40
2017-08-23T01:13:16.427Z,22.70
2017-08-23T01:15:43.958Z,22.40
2017-08-23T01:18:11.367Z,23.00
2017-08-23T01:20:38.792Z,23.00
2017-08-23T01:23:06.248Z,23.70
2017-08-23T01:25:33.788Z,23.40
2017-08-23T01:28:01.249Z,23.70
2017-08-23T01:30:28.668Z,23.90
2017-08-23T01:32:56.165Z,23.80
2017-08-23T01:35:23.617Z,23.40
2017-08-23T01:37:51.068Z,23.70
2017-08-23T01:40:18.517Z,23.70
2017-08-23T01:42:45.969Z,23.30
2017-08-23T01:45:13.442Z,23.70
2017-08-23T01:47:41.070Z,23.70
2017-08-23T01:50:08.568Z,23.90
2017-08-23T01:52:36.114Z,23.80
2017-08-23T01:55:03.546Z,24.20
2017-08-23T01:57:30.969Z,24.40
2017-08-23T01:59:58.489Z,24.60
2017-08-23T02:02:25.946Z,24.90
2017-08-23T02:04:53.575Z,25.00
2017-08-23T02:07:21.157Z,24.60
2017-08-23T02:09:48.583Z,24.90
2017-08-23T02:12:16.064Z,25.30
2017-08-23T02:14:43.516Z,25.60
2017-08-23T02:17:10.992Z,25.10
2017-08-23T02:19:38.416Z,25.00
2017-08-23T02:22:05.897Z,24.60
2017-08-23T02:24:33.325Z,24.70
2017-08-23T02:27:00.808Z,24.70
2017-08-23T02:29:28.233Z,23.20
2017-08-23T02:31:55.661Z,24.20
2017-08-23T02:34:23.176Z,24.00
2017-08-23T02:36:50.812Z,24.20
2017-08-23T02:39:18.227Z,24.00
2017-08-23T02:41:45.867Z,24.30
2017-08-23T02:44:13.503Z,24.60
2017-08-23T02:46:41.077Z,24.50
2017-08-23T02:49:08.831Z,24.60
2017-08-23T02:51:36.256Z,24.80
2017-08-23T02:54:03.949Z,24.90
2017-08-23T02:56:31.407Z,24.30
2017-08-23T02:58:58.884Z,24.80
2017-08-23T03:01:26.328Z,25.00
2017-08-23T03:03:53.862Z,25.50
2017-08-23T03:06:21.337Z,25.60
2017-08-23T03:08:48.793Z,25.90
2017-08-23T03:11:16.252Z,25.70
2017-08-23T03:13:43.681Z,25.90
2017-08-23T03:16:12.419Z,26.10
2017-08-23T03:18:40.148Z,26.10
2017-08-23T03:21:07.614Z,26.20
2017-08-23T03:23:35.372Z,26.60
2017-08-23T03:26:02.808Z,27.00
2017-08-23T03:28:30.289Z,27.00
2017-08-23T03:30:57.926Z,26.80
2017-08-23T03:33:25.377Z,26.30
2017-08-23T03:35:52.960Z,26.00
2017-08-23T03:38:20.381Z,26.40
2017-08-23T03:40:47.875Z,26.60
2017-08-23T03:43:15.308Z,26.70
2017-08-23T03:45:42.784Z,26.80
2017-08-23T03:48:10.248Z,26.70
2017-08-23T03:50:37.924Z,26.20
2017-08-23T03:53:05.460Z,26.00
2017-08-23T03:55:32.912Z,26.90
2017-08-23T03:58:00.338Z,26.90
2017-08-23T04:00:27.757Z,27.00
2017-08-23T04:02:55.245Z,26.80
2017-08-23T04:05:22.669Z,27.20
2017-08-23T04:07:50.202Z,27.10
2017-08-23T04:10:17.833Z,27.40
2017-08-23T04:12:45.417Z,27.40
2017-08-23T04:15:12.872Z,27.50
2017-08-23T04:17:40.328Z,27.60
2017-08-23T04:20:07.802Z,27.90
2017-08-23T04:22:35.424Z,28.20
2017-08-23T04:25:02.899Z,28.70
2017-08-23T04:27:30.381Z,28.70
2017-08-23T04:29:57.827Z,28.40
2017-08-23T04:32:25.380Z,28.60
2017-08-23T04:34:53.145Z,28.70
2017-08-23T04:37:20.901Z,28.70
2017-08-23T04:39:48.325Z,28.60
2017-08-23T04:42:15.759Z,28.60
2017-08-23T04:44:43.278Z,29.00
2017-08-23T04:47:11.031Z,28.60
2017-08-23T04:49:38.501Z,28.20
2017-08-23T04:52:06.289Z,28.70
2017-08-23T04:54:33.907Z,28.60
2017-08-23T04:57:01.493Z,27.70
2017-08-23T04:59:29.245Z,28.80
2017-08-23T05:01:57.006Z,29.00
2017-08-23T05:04:24.565Z,28.50
2017-08-23T05:06:52.128Z,28.70
2017-08-23T05:09:19.685Z,28.30
2017-08-23T05:11:47.446Z,28.40
2017-08-23T05:14:14.891Z,28.60
2017-08-23T05:16:42.349Z,28.60
2017-08-23T05:19:09.785Z,28.60
2017-08-23T05:21:37.486Z,28.50
2017-08-23T05:24:04.924Z,28.60
2017-08-23T05:26:32.416Z,28.60
2017-08-23T05:28:59.849Z,27.60
2017-08-23T05:31:27.277Z,26.90
2017-08-23T05:33:54.866Z,26.60
2017-08-23T05:36:22.292Z,27.50
2017-08-23T05:38:49.729Z,27.70
2017-08-23T05:41:17.223Z,26.20
2017-08-23T05:43:44.696Z,26.70
2017-08-23T05:46:12.325Z,26.80
2017-08-23T05:48:39.811Z,27.00
2017-08-23T05:51:07.362Z,26.40
2017-08-23T05:53:35.733Z,26.60
2017-08-23T05:56:03.193Z,26.60
2017-08-23T05:58:30.848Z,26.40
2017-08-23T06:00:58.311Z,26.80
2017-08-23T06:03:25.764Z,27.10
2017-08-23T06:05:53.320Z,27.40
2017-08-23T06:08:20.750Z,27.60
2017-08-23T06:10:48.236Z,26.80
2017-08-23T06:13:15.686Z,26.70
2017-08-23T06:15:43.148Z,26.80
2017-08-23T06:18:10.603Z,27.00
2017-08-23T06:20:38.059Z,25.70
2017-08-23T06:23:05.820Z,26.30
2017-08-23T06:25:33.252Z,26.30
2017-08-23T06:28:00.672Z,27.10
2017-08-23T06:30:28.193Z,26.80
2017-08-23T06:32:55.620Z,27.10
2017-08-23T06:35:23.050Z,27.70
2017-08-23T06:37:50.563Z,27.10
2017-08-23T06:40:18.005Z,25.80
2017-08-23T06:42:45.428Z,26.80
2017-08-23T06:45:12.860Z,27.20
2017-08-23T06:47:40.390Z,27.30
2017-08-23T06:50:07.850Z,26.70
2017-08-23T06:52:35.300Z,26.90
2017-08-23T06:55:02.752Z,25.50
2017-08-23T06:57:30.185Z,26.40
2017-08-23T06:59:57.674Z,27.20
2017-08-23T07:02:25.441Z,25.60
2017-08-23T07:04:53.197Z,25.40
2017-08-23T07:07:20.613Z,26.90
2017-08-23T07:09:48.049Z,26.90
2017-08-23T07:12:15.559Z,26.70
2017-08-23T07:14:43.002Z,26.20
2017-08-23T07:17:10.415Z,25.50
2017-08-23T07:19:37.934Z,25.50
2017-08-23T07:22:05.385Z,25.50
2017-08-23T07:24:32.808Z,24.20
2017-08-23T07:27:00.241Z,25.40
2017-08-23T07:29:27.757Z,26.40
2017-08-23T07:31:55.212Z,25.20
2017-08-23T07:34:22.634Z,25.70
2017-08-23T07:36:50.060Z,25.80
2017-08-23T07:39:17.478Z,24.50
2017-08-23T07:41:45.029Z,25.10
2017-08-23T07:44:12.453Z,25.60
2017-08-23T07:46:39.893Z,25.90
2017-08-23T07:49:07.404Z,26.30
2017-08-23T07:51:34.831Z,26.00
2017-08-23T07:54:02.253Z,26.70
2017-08-23T07:56:29.772Z,26.10
2017-08-23T07:58:57.195Z,25.40
2017-08-23T08:01:24.685Z,27.20
2017-08-23T08:03:52.137Z,26.20
2017-08-23T08:06:19.570Z,25.50
2017-08-23T08:08:47.010Z,25.90
2017-08-23T08:11:14.429Z,25.50
2017-08-23T08:13:41.967Z,25.50
2017-08-23T08:16:09.397Z,26.40
2017-08-23T08:18:36.820Z,24.60
2017-08-23T08:21:04.241Z,24.40
2017-08-23T08:23:31.682Z,24.40
2017-08-23T08:25:59.248Z,24.60
2017-08-23T08:28:26.685Z,24.50
2017-08-23T08:30:54.165Z,22.90
2017-08-23T08:33:21.626Z,22.10
2017-08-23T08:35:49.071Z,22.00
2017-08-23T08:38:16.510Z,22.30
2017-08-23T08:40:43.935Z,23.10
2017-08-23T08:43:11.360Z,23.60
2017-08-23T08:45:38.900Z,22.50
2017-08-23T08:48:06.549Z,21.60
2017-08-23T08:50:34.028Z,22.90
2017-08-23T08:53:01.581Z,22.00
2017-08-23T08:55:29.081Z,22.60
2017-08-23T08:57:56.671Z,21.20
2017-08-23T09:00:24.242Z,20.70
2017-08-23T09:02:51.669Z,22.30
2017-08-23T09:05:19.095Z,22.60
2017-08-23T09:07:46.621Z,22.40
2017-08-23T09:10:14.087Z,22.10
2017-08-23T09:12:41.500Z,21.90
2017-08-23T09:15:09.008Z,22.20
2017-08-23T09:17:36.446Z,20.90
2017-08-23T09:20:03.906Z,20.90
2017-08-23T09:22:31.329Z,20.20
2017-08-23T09:24:58.781Z,22.30
2017-08-23T09:27:26.261Z,21.40
2017-08-23T09:29:53.697Z,20.10
2017-08-23T09:32:21.187Z,18.90
2017-08-23T09:34:48.945Z,18.80
2017-08-23T09:37:16.368Z,19.50
2017-08-23T09:39:43.801Z,21.10
2017-08-23T09:42:11.317Z,21.10
2017-08-23T09:44:38.745Z,19.50
2017-08-23T09:47:06.220Z,17.50
2017-08-23T09:49:33.689Z,18.40
2017-08-23T09:52:01.440Z,18.10
2017-08-23T09:54:28.905Z,17.00
2017-08-23T09:56:56.541Z,17.50
2017-08-23T09:59:24.123Z,20.50
2017-08-23T10:01:51.557Z,19.70
2017-08-23T10:04:18.982Z,19.70
2017-08-23T10:06:46.485Z,19.60
2017-08-23T10:09:13.902Z,19.20
2017-08-23T10:11:41.405Z,17.60
2017-08-23T10:14:09.165Z,18.90
2017-08-23T10:16:36.625Z,18.70
2017-08-23T10:19:04.156Z,17.10
2017-08-23T10:21:31.815Z,18.60
2017-08-23T10:23:59.251Z,19.70
2017-08-23T10:26:26.685Z,18.30
2017-08-23T10:28:54.117Z,18.50
2017-08-23T10:31:21.553Z,16.10
2017-08-23T10:33:49.128Z,13.90
2017-08-23T10:36:16.573Z,12.80
2017-08-23T10:38:44.001Z,13.30
2017-08-23T10:41:11.426Z,15.40
2017-08-23T10:43:38.949Z,14.40
2017-08-23T10:46:06.576Z,16.00
2017-08-23T10:48:34.168Z,15.40
2017-08-23T10:51:01.616Z,16.30
2017-08-23T10:53:29.086Z,15.60
2017-08-23T10:55:56.718Z,15.10
2017-08-23T10:58:24.305Z,16.20
2017-08-23T11:00:52.067Z,16.20
2017-08-23T11:03:19.488Z,14.60
2017-08-23T11:05:46.912Z,14.10
2017-08-23T11:08:14.352Z,13.90
2017-08-23T11:10:41.781Z,11.40
2017-08-23T11:13:09.345Z,13.80
2017-08-23T11:15:36.818Z,11.30
2017-08-23T11:18:04.267Z,11.50
2017-08-23T11:20:31.716Z,11.60
2017-08-23T11:22:59.350Z,11.00
2017-08-23T11:25:26.932Z,11.30
2017-08-23T11:27:54.394Z,9.70
2017-08-23T11:30:21.816Z,9.80
2017-08-23T11:32:49.233Z,12.80
2017-08-23T11:35:16.681Z,10.10
2017-08-23T11:37:44.218Z,12.00
2017-08-23T11:40:11.649Z,12.10
2017-08-23T11:42:39.066Z,9.00
2017-08-23T11:45:06.587Z,9.20
2017-08-23T11:47:34.046Z,9.60
2017-08-23T11:50:01.679Z,9.40
2017-08-23T11:52:29.133Z,8.60
2017-08-23T11:54:56.713Z,8.30
2017-08-23T11:57:24.134Z,9.60
2017-08-23T11:59:51.625Z,11.30
2017-08-23T12:02:19.107Z,8.50
2017-08-23T12:04:46.498Z,8.00
2017-08-23T12:07:13.933Z,7.90
2017-08-23T12:09:41.370Z,9.80
2017-08-23T12:12:08.918Z,9.20
2017-08-23T12:14:36.668Z,6.00
2017-08-23T12:17:04.102Z,7.20
2017-08-23T12:19:31.519Z,5.00
2017-08-23T12:21:59.049Z,5.70
2017-08-23T12:24:26.501Z,5.90
2017-08-23T12:26:54.256Z,6.70
2017-08-23T12:29:21.723Z,7.00
2017-08-23T12:31:49.157Z,10.50
2017-08-23T12:34:16.568Z,5.90
2017-08-23T12:36:44.085Z,5.90
2017-08-23T12:39:11.500Z,4.80
2017-08-23T12:41:39.009Z,6.30
2017-08-23T12:44:06.631Z,6.20
2017-08-23T12:46:34.217Z,6.20
2017-08-23T12:49:01.669Z,3.30
2017-08-23T12:51:29.133Z,4.70
2017-08-23T12:53:56.597Z,3.50
2017-08-23T12:56:24.353Z,2.10
2017-08-23T12:58:51.815Z,1.60
2017-08-23T13:01:19.573Z,1.90
2017-08-23T13:03:47.009Z,1.00
2017-08-23T13:06:14.431Z,1.00
2017-08-23T13:08:41.851Z,1.00
2017-08-23T13:11:09.303Z,1.00
2017-08-23T13:13:36.760Z,1.00
2017-08-23T13:16:04.303Z,1.00
2017-08-23T13:18:31.744Z,1.00
2017-08-23T13:20:59.215Z,1.00
2017-08-23T13:23:26.672Z,1.00
2017-08-23T13:25:54.145Z,1.00
2017-08-23T13:28:21.568Z,1.00
2017-08-23T13:30:49.010Z,1.00
2017-08-23T13:33:16.437Z,1.00
2017-08-23T13:35:43.858Z,1.00
2017-08-23T13:38:11.286Z,1.00
2017-08-23T13:40:38.720Z,1.00
2017-08-23T13:43:06.163Z,1.00
2017-08-23T13:45:33.572Z,1.00
2017-08-23T13:48:00.992Z,1.00
2017-08-23T13:50:28.430Z,1.00
2017-08-23T13:52:55.846Z,1.00
2017-08-23T13:55:23.277Z,1.00
2017-08-23T13:57:50.687Z,1.00
2017-08-23T14:00:18.120Z,1.00
2017-08-23T14:02:45.540Z,1.00
2017-08-23T14:05:12.975Z,1.00
2017-08-23T14:07:40.416Z,1.00
2017-08-23T14:10:07.838Z,1.00
2017-08-23T14:12:35.267Z,1.00
2017-08-23T14:15:02.698Z,1.00
2017-08-23T14:17:30.117Z,1.00
2017-08-23T14:19:57.550Z,1.00
2017-08-23T14:22:24.965Z,1.00
2017-08-23T14:24:52.393Z,1.00
2017-08-23T14:27:19.850Z,1.00
2017-08-23T14:29:47.275Z,1.00
2017-08-23T14:32:14.756Z,1.00
2017-08-23T14:34:42.121Z,1.00
2017-08-23T14:37:10.359Z,1.00
2017-08-23T14:39:37.806Z,1.00
2017-08-23T14:42:05.215Z,1.00
2017-08-23T14:44:32.648Z,1.00
2017-08-23T14:47:00.078Z,1.00
2017-08-23T14:49:27.493Z,1.00
2017-08-23T14:51:54.923Z,1.00
2017-08-23T14:54:22.345Z,1.00
2017-08-23T14:56:49.768Z,1.00
2017-08-23T14:59:17.191Z,1.00
2017-08-23T15:01:44.632Z,1.00
2017-08-23T15:04:12.036Z,1.00
2017-08-23T15:06:39.465Z,1.00
2017-08-23T15:09:06.907Z,1.00
2017-08-23T15:11:34.337Z,1.00
2017-08-23T15:14:01.761Z,1.00
2017-08-23T15:16:29.193Z,1.00
2017-08-23T15:18:56.620Z,1.00
2017-08-23T15:21:24.073Z,1.00
2017-08-23T15:23:51.484Z,1.00
2017-08-23T15:26:19.435Z,1.00
2017-08-23T15:28:47.423Z,1.00
2017-08-23T15:31:15.989Z,1.00
2017-08-23T15:33:43.457Z,1.00
2017-08-23T15:36:10.889Z,1.00
2017-08-23T15:38:38.318Z,1.00
2017-08-23T15:41:05.751Z,1.00
2017-08-23T15:43:33.188Z,1.00
2017-08-23T15:46:00.625Z,1.00
2017-08-23T15:48:28.049Z,1.00
2017-08-23T15:50:55.523Z,1.00
2017-08-23T15:53:23.045Z,1.00
2017-08-23T15:55:50.461Z,1.00
2017-08-23T15:58:17.918Z,1.00
2017-08-23T16:00:45.417Z,1.00
2017-08-23T16:03:13.048Z,1.00
2017-08-23T16:05:40.488Z,1.00
2017-08-23T16:08:08.033Z,1.00
2017-08-23T16:10:35.570Z,1.00
2017-08-23T16:13:03.103Z,1.00
2017-08-23T16:15:30.718Z,1.00
2017-08-23T16:17:58.131Z,1.00
2017-08-23T16:20:25.557Z,1.00
2017-08-23T16:22:53.093Z,1.00
2017-08-23T16:25:20.548Z,1.00
2017-08-23T16:27:48.047Z,1.00
2017-08-23T16:30:15.599Z,1.00
2017-08-23T16:32:43.264Z,1.00
2017-08-23T16:35:10.959Z,1.00
2017-08-23T16:37:38.394Z,1.00
2017-08-23T16:40:05.900Z,1.00
2017-08-23T16:42:33.389Z,1.00
2017-08-23T16:45:00.802Z,1.00
2017-08-23T16:47:28.232Z,1.00
2017-08-23T16:49:55.657Z,1.00
2017-08-23T16:52:23.088Z,1.00
2017-08-23T16:54:50.516Z,1.00
2017-08-23T16:57:17.956Z,1.00
2017-08-23T16:59:45.381Z,1.00
2017-08-23T17:02:12.894Z,1.00
2017-08-23T17:04:40.321Z,1.00
2017-08-23T17:07:07.783Z,1.00
2017-08-23T17:09:35.419Z,1.00
2017-08-23T17:12:03.043Z,1.00
2017-08-23T17:14:30.638Z,1.00
2017-08-23T17:16:58.085Z,1.00
2017-08-23T17:19:25.550Z,1.00
2017-08-23T17:21:52.986Z,1.00
2017-08-23T17:24:20.448Z,1.00
2017-08-23T17:26:47.841Z,1.00
2017-08-23T17:29:15.297Z,1.00
2017-08-23T17:31:42.885Z,1.00
2017-08-23T17:34:10.593Z,1.00
2017-08-23T17:36:38.053Z,1.00
2017-08-23T17:39:05.723Z,1.00
2017-08-23T17:41:33.141Z,1.00
2017-08-23T17:44:00.665Z,1.10
2017-08-23T17:46:28.089Z,1.70
2017-08-23T17:48:55.517Z,1.80
2017-08-23T17:51:22.952Z,2.10
2017-08-23T17:53:50.427Z,2.10
2017-08-23T17:56:18.013Z,2.70
2017-08-23T17:58:45.460Z,4.00
2017-08-23T18:01:12.917Z,3.90
2017-08-23T18:03:40.345Z,3.70
2017-08-23T18:06:07.828Z,3.90
2017-08-23T18:08:35.293Z,3.70
2017-08-23T18:11:02.749Z,3.60
2017-08-23T18:13:30.377Z,3.60
2017-08-23T18:15:57.802Z,4.10
2017-08-23T18:18:25.324Z,6.40
2017-08-23T18:20:52.843Z,7.00
2017-08-23T18:23:20.261Z,6.70
2017-08-23T18:25:47.687Z,5.90
2017-08-23T18:28:15.111Z,5.90
2017-08-23T18:30:42.701Z,5.60
2017-08-23T18:33:10.129Z,5.30
2017-08-23T18:35:37.569Z,5.40
2017-08-23T18:38:04.989Z,6.10
2017-08-23T18:40:32.421Z,6.00
2017-08-23T18:42:59.871Z,5.80
2017-08-23T18:45:27.350Z,6.20
2017-08-23T18:47:54.773Z,6.90
2017-08-23T18:50:22.358Z,8.50
2017-08-23T18:52:49.817Z,8.10
2017-08-23T18:55:17.568Z,8.30
2017-08-23T18:57:46.688Z,7.40
2017-08-23T19:00:14.326Z,7.80
2017-08-23T19:02:41.746Z,7.90
2017-08-23T19:05:09.175Z,8.30
2017-08-23T19:07:36.691Z,8.80
2017-08-23T19:10:04.163Z,9.20
2017-08-23T19:12:31.793Z,9.80
2017-08-23T19:14:59.249Z,11.70
2017-08-23T19:17:26.728Z,12.70
2017-08-23T19:19:54.186Z,13.10
2017-08-23T19:22:21.620Z,14.00
2017-08-23T19:24:49.196Z,14.40
2017-08-23T19:27:16.613Z,14.70
2017-08-23T19:29:44.037Z,13.90
2017-08-23T19:32:11.478Z,13.90
2017-08-23T19:34:39.021Z,12.90
2017-08-23T19:37:06.691Z,12.90
2017-08-23T19:39:34.118Z,12.80
2017-08-23T19:42:01.611Z,13.30
2017-08-23T19:44:29.081Z,13.70
2017-08-23T19:46:56.513Z,15.00
2017-08-23T19:49:23.974Z,15.10
2017-08-23T19:51:51.981Z,14.50
2017-08-23T19:54:19.596Z,15.30
2017-08-23T19:56:47.044Z,16.40
2017-08-23T19:59:14.468Z,16.20
2017-08-23T20:01:41.958Z,16.00
2017-08-23T20:04:09.417Z,16.70
2017-08-23T20:06:36.877Z,17.20
2017-08-23T20:09:04.297Z,17.80
2017-08-23T20:11:31.732Z,18.00
2017-08-23T20:13:59.156Z,18.70
2017-08-23T20:16:26.689Z,19.60
2017-08-23T20:18:54.121Z,19.90
2017-08-23T20:21:21.623Z,20.20
2017-08-23T20:23:49.367Z,20.30
2017-08-23T20:26:16.824Z,20.80
2017-08-23T20:28:44.285Z,21.20
2017-08-23T20:31:11.749Z,21.00
2017-08-23T20:33:39.200Z,21.20
2017-08-23T20:36:06.626Z,21.20
2017-08-23T20:38:34.041Z,21.60
2017-08-23T20:41:01.565Z,21.90
2017-08-23T20:43:29.325Z,21.80
2017-08-23T20:45:56.757Z,21.90
2017-08-23T20:48:24.241Z,21.80
2017-08-23T20:50:51.714Z,21.80
2017-08-23T20:53:19.148Z,21.90
2017-08-23T20:55:46.576Z,21.70
2017-08-23T20:58:14.067Z,21.70
2017-08-23T21:00:41.525Z,21.70
2017-08-23T21:03:09.281Z,22.50
2017-08-23T21:05:36.741Z,22.10
2017-08-23T21:08:04.196Z,21.70
2017-08-23T21:10:31.617Z,21.70
2017-08-23T21:12:59.053Z,22.00
2017-08-23T21:15:26.472Z,22.50
2017-08-23T21:17:54.029Z,22.90
2017-08-23T21:20:21.481Z,23.30
2017-08-23T21:22:49.121Z,23.10
2017-08-23T21:25:16.571Z,23.30
2017-08-23T21:27:44.153Z,22.90
2017-08-23T21:30:11.576Z,23.10
2017-08-23T21:32:39.069Z,23.30
2017-08-23T21:35:06.535Z,23.40
2017-08-23T21:37:33.971Z,23.50
2017-08-23T21:40:01.436Z,23.60
2017-08-23T21:42:28.892Z,23.50
2017-08-23T21:44:56.344Z,23.50
2017-08-23T21:47:23.777Z,23.10
2017-08-23T21:49:51.256Z,24.20
2017-08-23T21:52:18.696Z,23.90
2017-08-23T21:54:46.114Z,24.20
2017-08-23T21:57:13.547Z,24.10
2017-08-23T21:59:40.970Z,24.30
2017-08-23T22:02:08.430Z,24.30
2017-08-23T22:04:36.005Z,24.20
2017-08-23T22:07:03.632Z,24.20
2017-08-23T22:09:31.133Z,24.40
2017-08-23T22:11:58.677Z,24.20
2017-08-23T22:14:26.308Z,24.20
2017-08-23T22:16:53.793Z,24.20
2017-08-23T22:19:21.277Z,24.60
2017-08-23T22:21:48.805Z,24.60
2017-08-23T22:24:16.244Z,24.60
2017-08-23T22:26:43.656Z,24.80
2017-08-23T22:29:11.093Z,24.40
2017-08-23T22:31:38.631Z,24.60
2017-08-23T22:34:06.088Z,25.00
2017-08-23T22:36:33.536Z,25.60
2017-08-23T22:39:00.973Z,26.20
2017-08-23T22:41:28.396Z,26.00
2017-08-23T22:43:55.833Z,26.40
2017-08-23T22:46:23.383Z,25.50
2017-08-23T22:48:50.818Z,25.60
2017-08-23T22:51:18.281Z,25.60
2017-08-23T22:53:45.717Z,25.40
2017-08-23T22:56:13.138Z,26.00
2017-08-23T22:58:40.648Z,26.90
2017-08-23T23:01:08.107Z,26.00
2017-08-23T23:03:35.541Z,26.30
2017-08-23T23:06:03.026Z,25.90
2017-08-23T23:08:30.465Z,25.50
2017-08-23T23:10:57.923Z,25.70
2017-08-23T23:13:25.349Z,25.50
2017-08-23T23:15:52.835Z,26.40
2017-08-23T23:18:20.279Z,26.00
2017-08-23T23:20:47.692Z,26.10
2017-08-23T23:23:15.209Z,25.90
2017-08-23T23:25:42.660Z,26.50
2017-08-23T23:28:10.097Z,26.70
2017-08-23T23:30:37.523Z,26.70
2017-08-23T23:33:05.037Z,26.50
2017-08-23T23:35:32.665Z,26.90
2017-08-23T23:38:00.193Z,26.60
2017-08-23T23:40:27.629Z,26.80
2017-08-23T23:42:55.065Z,26.90
2017-08-23T23:45:22.614Z,27.60
2017-08-23T23:47:50.028Z,27.80
2017-08-23T23:50:17.460Z,27.80
2017-08-23T23:52:44.897Z,28.40
2017-08-23T23:55:12.338Z,28.40
2017-08-23T23:57:39.799Z,28.50
